createdAt,value
2017-02-09T00:00:04.462Z,926.58
2017-02-09T00:00:24.193Z,926.6
2017-02-09T00:00:44.000Z,926.62
2017-02-09T00:01:03.727Z,926.63
2017-02-09T00:01:23.463Z,926.72
2017-02-09T00:01:43.185Z,926.65
2017-02-09T00:02:02.892Z,926.66
2017-02-09T00:02:22.615Z,926.65
2017-02-09T00:02:41.731Z,926.65
2017-02-09T00:03:00.895Z,926.63
2017-02-09T00:03:20.632Z,926.66
2017-02-09T00:03:40.364Z,926.69
2017-02-09T00:03:59.435Z,926.68
2017-02-09T00:04:19.289Z,926.75
2017-02-09T00:04:38.999Z,926.71
2017-02-09T00:04:58.704Z,926.7
2017-02-09T00:05:18.019Z,926.73
2017-02-09T00:05:37.870Z,926.74
2017-02-09T00:05:57.595Z,926.74
2017-02-09T00:06:17.329Z,926.73
2017-02-09T00:06:37.046Z,926.73
2017-02-09T00:06:56.755Z,926.78
2017-02-09T00:07:16.486Z,926.78
2017-02-09T00:07:35.594Z,926.81
2017-02-09T00:07:54.712Z,926.8
2017-02-09T00:08:14.414Z,926.75
2017-02-09T00:08:33.521Z,926.77
2017-02-09T00:08:53.223Z,926.82
2017-02-09T00:09:12.908Z,926.83
2017-02-09T00:09:32.613Z,926.85
2017-02-09T00:09:51.741Z,926.84
2017-02-09T00:10:11.504Z,926.88
2017-02-09T00:10:31.182Z,926.89
2017-02-09T00:10:50.400Z,926.85
2017-02-09T00:11:10.109Z,926.84
2017-02-09T00:11:29.828Z,926.92
2017-02-09T00:11:49.552Z,926.85
2017-02-09T00:12:09.287Z,926.88
2017-02-09T00:12:28.408Z,926.88
2017-02-09T00:12:48.119Z,926.88
2017-02-09T00:13:08.131Z,926.82
2017-02-09T00:13:28.165Z,926.83
2017-02-09T00:13:47.893Z,926.85
2017-02-09T00:14:07.587Z,926.89
2017-02-09T00:14:27.316Z,926.86
2017-02-09T00:14:47.057Z,926.81
2017-02-09T00:15:06.759Z,926.82
2017-02-09T00:15:26.444Z,926.82
2017-02-09T00:15:46.154Z,926.81
2017-02-09T00:16:05.880Z,926.83
2017-02-09T00:16:25.576Z,926.82
2017-02-09T00:16:45.304Z,926.81
2017-02-09T00:17:05.002Z,926.83
2017-02-09T00:17:24.092Z,926.83
2017-02-09T00:17:43.868Z,926.91
2017-02-09T00:18:03.630Z,926.86
2017-02-09T00:18:23.345Z,926.94
2017-02-09T00:18:43.073Z,926.88
2017-02-09T00:19:02.773Z,926.91
2017-02-09T00:19:22.507Z,926.93
2017-02-09T00:19:42.232Z,926.88
2017-02-09T00:20:01.930Z,926.94
2017-02-09T00:20:21.044Z,926.98
2017-02-09T00:20:40.757Z,926.97
2017-02-09T00:21:00.501Z,926.99
2017-02-09T00:21:20.229Z,926.97
2017-02-09T00:21:39.987Z,926.98
2017-02-09T00:21:59.683Z,926.98
2017-02-09T00:22:19.411Z,927
2017-02-09T00:22:38.536Z,927.01
2017-02-09T00:22:58.250Z,927.04
2017-02-09T00:23:17.932Z,927.02
2017-02-09T00:23:37.656Z,927.02
2017-02-09T00:23:57.381Z,927.01
2017-02-09T00:24:17.145Z,927.02
2017-02-09T00:24:36.859Z,927.02
2017-02-09T00:24:56.596Z,927.09
2017-02-09T00:25:16.290Z,927.08
2017-02-09T00:25:36.086Z,927.11
2017-02-09T00:25:55.795Z,927.15
2017-02-09T00:26:15.525Z,927.12
2017-02-09T00:26:35.243Z,927.13
2017-02-09T00:26:54.964Z,927.13
2017-02-09T00:27:14.654Z,927.15
2017-02-09T00:27:34.359Z,927.17
2017-02-09T00:27:54.127Z,927.18
2017-02-09T00:28:13.836Z,927.22
2017-02-09T00:28:33.580Z,927.17
2017-02-09T00:28:52.665Z,927.17
2017-02-09T00:29:12.352Z,927.2
2017-02-09T00:29:32.050Z,927.17
2017-02-09T00:29:51.152Z,927.21
2017-02-09T00:30:10.862Z,927.21
2017-02-09T00:30:30.624Z,927.2
2017-02-09T00:30:50.314Z,927.17
2017-02-09T00:31:10.034Z,927.2
2017-02-09T00:31:29.757Z,927.21
2017-02-09T00:31:49.516Z,927.18
2017-02-09T00:32:09.265Z,927.17
2017-02-09T00:32:29.011Z,927.14
2017-02-09T00:32:48.110Z,927.18
2017-02-09T00:33:07.858Z,927.19
2017-02-09T00:33:26.954Z,927.19
2017-02-09T00:33:46.695Z,927.24
2017-02-09T00:34:06.375Z,927.06
2017-02-09T00:34:26.110Z,927.22
2017-02-09T00:34:45.870Z,927.16
2017-02-09T00:35:05.557Z,927.17
2017-02-09T00:35:25.262Z,927.16
2017-02-09T00:35:44.978Z,927.16
2017-02-09T00:36:04.710Z,927.19
2017-02-09T00:36:24.399Z,927.23
2017-02-09T00:36:44.084Z,927.19
2017-02-09T00:37:03.841Z,927.19
2017-02-09T00:37:23.567Z,927.19
2017-02-09T00:37:43.263Z,927.2
2017-02-09T00:38:02.981Z,927.23
2017-02-09T00:38:22.679Z,927.24
2017-02-09T00:38:42.415Z,927.22
2017-02-09T00:39:02.125Z,927.2
2017-02-09T00:39:21.839Z,927.21
2017-02-09T00:39:41.526Z,927.23
2017-02-09T00:40:01.225Z,927.2
2017-02-09T00:40:20.367Z,927.22
2017-02-09T00:40:40.063Z,927.2
2017-02-09T00:40:59.752Z,927.24
2017-02-09T00:41:19.499Z,927.29
2017-02-09T00:41:39.300Z,927.3
2017-02-09T00:41:59.033Z,927.3
2017-02-09T00:42:18.721Z,927.28
2017-02-09T00:42:38.475Z,927.29
2017-02-09T00:42:58.195Z,927.33
2017-02-09T00:43:17.872Z,927.35
2017-02-09T00:43:37.605Z,927.35
2017-02-09T00:43:57.557Z,927.39
2017-02-09T00:44:17.301Z,927.27
2017-02-09T00:44:37.008Z,927.26
2017-02-09T00:44:56.696Z,927.21
2017-02-09T00:45:15.835Z,927.31
2017-02-09T00:45:36.111Z,927.38
2017-02-09T00:45:55.830Z,927.37
2017-02-09T00:46:15.543Z,927.35
2017-02-09T00:46:35.242Z,927.37
2017-02-09T00:46:54.915Z,927.42
2017-02-09T00:47:14.615Z,927.35
2017-02-09T00:47:34.329Z,927.38
2017-02-09T00:47:54.041Z,927.38
2017-02-09T00:48:13.754Z,927.35
2017-02-09T00:48:32.902Z,927.37
2017-02-09T00:48:52.606Z,927.4
2017-02-09T00:49:11.710Z,927.42
2017-02-09T00:49:31.402Z,927.39
2017-02-09T00:49:51.092Z,927.41
2017-02-09T00:50:10.188Z,927.38
2017-02-09T00:50:29.327Z,927.4
2017-02-09T00:50:49.057Z,927.36
2017-02-09T00:51:08.760Z,927.34
2017-02-09T00:51:28.439Z,927.32
2017-02-09T00:51:48.183Z,927.3
2017-02-09T00:52:07.899Z,927.35
2017-02-09T00:52:27.607Z,927.32
2017-02-09T00:52:47.316Z,927.32
2017-02-09T00:53:07.061Z,927.28
2017-02-09T00:53:26.155Z,927.3
2017-02-09T00:53:45.318Z,927.38
2017-02-09T00:54:05.021Z,927.26
2017-02-09T00:54:24.754Z,927.29
2017-02-09T00:54:44.453Z,927.34
2017-02-09T00:55:03.537Z,927.35
2017-02-09T00:55:22.627Z,927.29
2017-02-09T00:55:42.346Z,927.37
2017-02-09T00:56:01.463Z,927.36
2017-02-09T00:56:20.572Z,927.4
2017-02-09T00:56:40.334Z,927.3
2017-02-09T00:57:00.029Z,927.31
2017-02-09T00:57:19.731Z,927.3
2017-02-09T00:57:39.434Z,927.34
2017-02-09T00:57:59.188Z,927.37
2017-02-09T00:58:18.848Z,927.38
2017-02-09T00:58:38.536Z,927.33
2017-02-09T00:58:58.232Z,927.38
2017-02-09T00:59:17.973Z,927.4
2017-02-09T00:59:37.671Z,927.33
2017-02-09T00:59:57.424Z,927.36
2017-02-09T01:00:17.151Z,927.34
2017-02-09T01:00:36.909Z,927.36
2017-02-09T01:00:56.625Z,927.38
2017-02-09T01:01:16.315Z,927.38
2017-02-09T01:01:36.049Z,927.35
2017-02-09T01:01:55.781Z,927.33
2017-02-09T01:02:15.484Z,927.34
2017-02-09T01:02:35.184Z,927.37
2017-02-09T01:02:54.329Z,927.37
2017-02-09T01:03:14.049Z,927.33
2017-02-09T01:03:33.726Z,927.38
2017-02-09T01:03:53.428Z,927.37
2017-02-09T01:04:13.140Z,927.39
2017-02-09T01:04:32.849Z,927.44
2017-02-09T01:04:52.560Z,927.39
2017-02-09T01:05:12.288Z,927.36
2017-02-09T01:05:32.016Z,927.38
2017-02-09T01:05:51.766Z,927.42
2017-02-09T01:06:11.473Z,927.39
2017-02-09T01:06:31.212Z,927.37
2017-02-09T01:06:50.921Z,927.38
2017-02-09T01:07:10.020Z,927.39
2017-02-09T01:07:29.744Z,927.42
2017-02-09T01:07:49.488Z,927.41
2017-02-09T01:08:09.200Z,927.42
2017-02-09T01:08:28.927Z,927.43
2017-02-09T01:08:48.623Z,927.42
2017-02-09T01:09:08.344Z,927.36
2017-02-09T01:09:28.035Z,927.42
2017-02-09T01:09:47.738Z,927.35
2017-02-09T01:10:07.490Z,927.42
2017-02-09T01:10:26.617Z,927.42
2017-02-09T01:10:46.330Z,927.41
2017-02-09T01:11:06.035Z,927.43
2017-02-09T01:11:25.724Z,927.48
2017-02-09T01:11:45.408Z,927.46
2017-02-09T01:12:05.096Z,927.45
2017-02-09T01:12:24.812Z,927.4
2017-02-09T01:12:44.544Z,927.42
2017-02-09T01:13:04.286Z,927.42
2017-02-09T01:13:23.983Z,927.38
2017-02-09T01:13:43.698Z,927.44
2017-02-09T01:14:02.805Z,927.41
2017-02-09T01:14:22.505Z,927.42
2017-02-09T01:14:42.227Z,927.4
2017-02-09T01:15:02.021Z,927.42
2017-02-09T01:15:21.761Z,927.38
2017-02-09T01:15:42.136Z,927.37
2017-02-09T01:16:02.570Z,927.41
2017-02-09T01:16:21.042Z,927.39
2017-02-09T01:16:41.496Z,927.36
2017-02-09T01:17:01.908Z,927.37
2017-02-09T01:17:22.296Z,927.33
2017-02-09T01:17:42.654Z,927.36
2017-02-09T01:18:03.114Z,927.38
2017-02-09T01:18:23.484Z,927.35
2017-02-09T01:18:43.887Z,927.37
2017-02-09T01:19:04.282Z,927.37
2017-02-09T01:19:24.053Z,927.33
2017-02-09T01:19:44.432Z,927.35
2017-02-09T01:20:04.821Z,927.35
2017-02-09T01:20:24.670Z,927.3
2017-02-09T01:20:45.079Z,927.34
2017-02-09T01:21:05.470Z,927.36
2017-02-09T01:21:25.875Z,927.32
2017-02-09T01:21:45.613Z,927.39
2017-02-09T01:22:05.972Z,927.33
2017-02-09T01:22:26.333Z,927.38
2017-02-09T01:22:46.118Z,927.34
2017-02-09T01:23:06.552Z,927.38
2017-02-09T01:23:26.933Z,927.37
2017-02-09T01:23:47.311Z,927.37
2017-02-09T01:24:07.710Z,927.4
2017-02-09T01:24:28.099Z,927.43
2017-02-09T01:24:48.512Z,927.44
2017-02-09T01:25:08.901Z,927.46
2017-02-09T01:25:29.329Z,927.48
2017-02-09T01:25:49.697Z,927.47
2017-02-09T01:26:10.117Z,927.5
2017-02-09T01:26:30.480Z,927.46
2017-02-09T01:26:50.849Z,927.42
2017-02-09T01:27:11.217Z,927.45
2017-02-09T01:27:31.634Z,927.46
2017-02-09T01:27:52.050Z,927.46
2017-02-09T01:28:12.499Z,927.48
2017-02-09T01:28:32.932Z,927.5
2017-02-09T01:28:53.353Z,927.42
2017-02-09T01:29:13.749Z,927.43
2017-02-09T01:29:34.170Z,927.45
2017-02-09T01:29:54.555Z,927.41
2017-02-09T01:30:14.344Z,927.36
2017-02-09T01:30:34.785Z,927.43
2017-02-09T01:30:54.533Z,927.44
2017-02-09T01:31:14.958Z,927.45
2017-02-09T01:31:35.365Z,927.45
2017-02-09T01:31:55.753Z,927.5
2017-02-09T01:32:16.151Z,927.37
2017-02-09T01:32:36.596Z,927.48
2017-02-09T01:32:56.990Z,927.53
2017-02-09T01:33:17.402Z,927.53
2017-02-09T01:33:37.780Z,927.52
2017-02-09T01:33:57.482Z,927.51
2017-02-09T01:34:17.885Z,927.52
2017-02-09T01:34:38.242Z,927.49
2017-02-09T01:34:58.664Z,927.52
2017-02-09T01:35:19.072Z,927.5
2017-02-09T01:35:39.435Z,927.58
2017-02-09T01:35:59.833Z,927.58
2017-02-09T01:36:20.239Z,927.57
2017-02-09T01:36:40.636Z,927.58
2017-02-09T01:37:14.785Z,927.6
2017-02-09T01:37:35.159Z,927.6
2017-02-09T01:37:55.545Z,927.61
2017-02-09T01:38:15.980Z,927.59
2017-02-09T01:38:36.365Z,927.61
2017-02-09T01:38:56.778Z,927.56
2017-02-09T01:39:17.158Z,927.57
2017-02-09T01:39:37.590Z,927.55
2017-02-09T01:39:57.989Z,927.6
2017-02-09T01:40:18.377Z,927.59
2017-02-09T01:40:38.781Z,927.58
2017-02-09T01:40:59.177Z,927.56
2017-02-09T01:41:19.545Z,927.6
2017-02-09T01:41:39.934Z,927.56
2017-02-09T01:41:59.705Z,927.6
2017-02-09T01:42:20.102Z,927.57
2017-02-09T01:42:40.517Z,927.58
2017-02-09T01:43:00.933Z,927.6
2017-02-09T01:43:21.355Z,927.56
2017-02-09T01:43:41.773Z,927.59
2017-02-09T01:44:02.233Z,927.55
2017-02-09T01:44:21.980Z,927.52
2017-02-09T01:44:42.418Z,927.6
2017-02-09T01:45:03.045Z,927.45
2017-02-09T01:45:23.420Z,927.5
2017-02-09T01:45:43.772Z,927.58
2017-02-09T01:46:03.518Z,927.53
2017-02-09T01:46:23.905Z,927.53
2017-02-09T01:46:44.300Z,927.53
2017-02-09T01:47:04.669Z,927.59
2017-02-09T01:47:25.102Z,927.55
2017-02-09T01:47:45.492Z,927.55
2017-02-09T01:48:05.895Z,927.52
2017-02-09T01:48:26.349Z,927.56
2017-02-09T01:48:46.760Z,927.59
2017-02-09T01:49:07.135Z,927.55
2017-02-09T01:49:27.560Z,927.56
2017-02-09T01:49:47.966Z,927.57
2017-02-09T01:50:08.353Z,927.53
2017-02-09T01:50:28.745Z,927.54
2017-02-09T01:50:49.173Z,927.48
2017-02-09T01:51:09.594Z,927.48
2017-02-09T01:51:30.015Z,927.54
2017-02-09T01:51:50.434Z,927.55
2017-02-09T01:52:10.812Z,927.49
2017-02-09T01:52:31.207Z,927.55
2017-02-09T01:52:51.622Z,927.54
2017-02-09T01:53:12.020Z,927.63
2017-02-09T01:53:32.421Z,927.56
2017-02-09T01:53:52.165Z,927.61
2017-02-09T01:54:12.589Z,927.56
2017-02-09T01:54:33.001Z,927.62
2017-02-09T01:54:52.794Z,927.62
2017-02-09T01:55:13.192Z,927.59
2017-02-09T01:55:33.596Z,927.58
2017-02-09T01:55:54.327Z,927.61
2017-02-09T01:56:14.730Z,927.62
2017-02-09T01:56:35.135Z,927.58
2017-02-09T01:56:55.535Z,927.58
2017-02-09T01:57:15.936Z,927.61
2017-02-09T01:57:36.342Z,927.59
2017-02-09T01:57:56.772Z,927.58
2017-02-09T01:58:17.152Z,927.61
2017-02-09T01:58:37.559Z,927.54
2017-02-09T01:58:57.291Z,927.54
2017-02-09T01:59:17.686Z,927.55
2017-02-09T01:59:38.096Z,927.6
2017-02-09T01:59:58.499Z,927.57
2017-02-09T02:00:19.086Z,927.54
2017-02-09T02:00:41.218Z,927.63
2017-02-09T02:01:00.986Z,927.57
2017-02-09T02:01:21.373Z,927.59
2017-02-09T02:01:41.780Z,927.58
2017-02-09T02:02:02.221Z,927.63
2017-02-09T02:02:22.648Z,927.57
2017-02-09T02:02:43.044Z,927.58
2017-02-09T02:03:03.462Z,927.59
2017-02-09T02:03:23.834Z,927.59
2017-02-09T02:03:44.265Z,927.58
2017-02-09T02:04:04.660Z,927.64
2017-02-09T02:04:25.066Z,927.62
2017-02-09T02:04:45.526Z,927.57
2017-02-09T02:05:05.943Z,927.61
2017-02-09T02:05:26.336Z,927.58
2017-02-09T02:05:46.777Z,927.63
2017-02-09T02:06:07.205Z,927.62
2017-02-09T02:06:26.971Z,927.58
2017-02-09T02:06:47.371Z,927.57
2017-02-09T02:07:07.792Z,927.55
2017-02-09T02:07:28.181Z,927.54
2017-02-09T02:07:48.581Z,927.55
2017-02-09T02:08:08.981Z,927.56
2017-02-09T02:08:29.381Z,927.57
2017-02-09T02:08:49.096Z,927.51
2017-02-09T02:09:09.497Z,927.52
2017-02-09T02:09:29.923Z,927.52
2017-02-09T02:09:50.323Z,927.5
2017-02-09T02:10:10.687Z,927.48
2017-02-09T02:10:30.487Z,927.54
2017-02-09T02:10:50.869Z,927.53
2017-02-09T02:11:11.252Z,927.5
2017-02-09T02:11:31.669Z,927.49
2017-02-09T02:11:52.059Z,927.51
2017-02-09T02:12:12.441Z,927.49
2017-02-09T02:12:32.839Z,927.53
2017-02-09T02:12:53.247Z,927.47
2017-02-09T02:13:13.670Z,927.51
2017-02-09T02:13:34.070Z,927.5
2017-02-09T02:13:54.500Z,927.52
2017-02-09T02:14:14.282Z,927.55
2017-02-09T02:14:34.726Z,927.53
2017-02-09T02:14:54.523Z,927.53
2017-02-09T02:15:14.977Z,927.56
2017-02-09T02:15:35.417Z,927.55
2017-02-09T02:15:55.824Z,927.56
2017-02-09T02:16:16.241Z,927.58
2017-02-09T02:16:36.705Z,927.58
2017-02-09T02:16:57.181Z,927.56
2017-02-09T02:17:17.044Z,927.62
2017-02-09T02:17:36.809Z,927.56
2017-02-09T02:17:57.200Z,927.55
2017-02-09T02:18:17.611Z,927.5
2017-02-09T02:18:37.976Z,927.54
2017-02-09T02:18:58.381Z,927.59
2017-02-09T02:19:18.133Z,927.54
2017-02-09T02:19:38.521Z,927.57
2017-02-09T02:19:58.908Z,927.53
2017-02-09T02:20:33.223Z,927.53
2017-02-09T02:20:53.598Z,927.57
2017-02-09T02:21:13.992Z,927.58
2017-02-09T02:21:33.762Z,927.53
2017-02-09T02:21:54.154Z,927.53
2017-02-09T02:22:13.914Z,927.5
2017-02-09T02:22:34.321Z,927.52
2017-02-09T02:22:54.091Z,927.57
2017-02-09T02:23:14.538Z,927.52
2017-02-09T02:23:33.679Z,927.57
2017-02-09T02:23:54.101Z,927.57
2017-02-09T02:24:14.535Z,927.59
2017-02-09T02:24:34.958Z,927.53
2017-02-09T02:24:55.451Z,927.57
2017-02-09T02:25:16.073Z,927.51
2017-02-09T02:25:36.743Z,927.54
2017-02-09T02:25:57.149Z,927.59
2017-02-09T02:26:17.533Z,927.51
2017-02-09T02:26:37.920Z,927.56
2017-02-09T02:26:57.656Z,927.54
2017-02-09T02:27:18.045Z,927.53
2017-02-09T02:27:38.659Z,927.59
2017-02-09T02:27:59.076Z,927.49
2017-02-09T02:28:19.494Z,927.51
2017-02-09T02:28:39.289Z,927.53
2017-02-09T02:28:59.694Z,927.59
2017-02-09T02:29:20.120Z,927.57
2017-02-09T02:29:40.520Z,927.55
2017-02-09T02:30:00.945Z,927.59
2017-02-09T02:30:20.959Z,927.5
2017-02-09T02:30:41.432Z,927.49
2017-02-09T02:31:01.283Z,927.42
2017-02-09T02:31:21.746Z,927.43
2017-02-09T02:31:42.161Z,927.48
2017-02-09T02:32:02.578Z,927.39
2017-02-09T02:32:22.958Z,927.44
2017-02-09T02:32:42.711Z,927.4
2017-02-09T02:33:03.215Z,927.39
2017-02-09T02:33:23.687Z,927.4
2017-02-09T02:33:43.453Z,927.43
2017-02-09T02:34:03.899Z,927.35
2017-02-09T02:34:24.346Z,927.38
2017-02-09T02:34:44.827Z,927.41
2017-02-09T02:35:05.261Z,927.37
2017-02-09T02:35:25.734Z,927.33
2017-02-09T02:35:46.134Z,927.4
2017-02-09T02:36:06.515Z,927.44
2017-02-09T02:36:26.920Z,927.37
2017-02-09T02:36:48.122Z,927.41
2017-02-09T02:37:08.495Z,927.37
2017-02-09T02:37:28.238Z,927.43
2017-02-09T02:37:48.603Z,927.42
2017-02-09T02:38:09.006Z,927.45
2017-02-09T02:38:29.442Z,927.35
2017-02-09T02:38:49.857Z,927.46
2017-02-09T02:39:09.765Z,927.34
2017-02-09T02:39:30.302Z,927.34
2017-02-09T02:39:50.777Z,927.39
2017-02-09T02:40:25.020Z,927.39
2017-02-09T02:40:45.442Z,927.37
2017-02-09T02:41:05.951Z,927.35
2017-02-09T02:41:26.407Z,927.41
2017-02-09T02:41:46.819Z,927.35
2017-02-09T02:42:06.571Z,927.34
2017-02-09T02:42:26.351Z,927.29
2017-02-09T02:42:46.812Z,927.31
2017-02-09T02:43:07.201Z,927.35
2017-02-09T02:43:27.598Z,927.33
2017-02-09T02:43:48.005Z,927.29
2017-02-09T02:44:08.422Z,927.34
2017-02-09T02:44:28.802Z,927.3
2017-02-09T02:44:49.196Z,927.3
2017-02-09T02:45:09.590Z,927.25
2017-02-09T02:45:30.006Z,927.22
2017-02-09T02:45:50.435Z,927.23
2017-02-09T02:46:10.850Z,927.25
2017-02-09T02:46:30.605Z,927.22
2017-02-09T02:46:51.075Z,927.21
2017-02-09T02:47:11.503Z,927.18
2017-02-09T02:47:31.885Z,927.14
2017-02-09T02:47:52.279Z,927.15
2017-02-09T02:48:12.696Z,927.15
2017-02-09T02:48:33.065Z,927.12
2017-02-09T02:48:53.467Z,927.09
2017-02-09T02:49:13.964Z,927.08
2017-02-09T02:49:34.324Z,927.07
2017-02-09T02:49:54.731Z,927.08
2017-02-09T02:50:15.107Z,927.01
2017-02-09T02:50:35.515Z,927.02
2017-02-09T02:50:55.382Z,927
2017-02-09T02:51:15.862Z,927.01
2017-02-09T02:51:36.299Z,927.06
2017-02-09T02:51:56.834Z,927.04
2017-02-09T02:52:17.243Z,927.04
2017-02-09T02:52:37.682Z,927.03
2017-02-09T02:52:58.115Z,927.02
2017-02-09T02:53:27.622Z,927.03
2017-02-09T02:53:48.255Z,927
2017-02-09T02:54:08.788Z,927.03
2017-02-09T02:54:29.245Z,926.99
2017-02-09T02:54:49.030Z,927.03
2017-02-09T02:55:09.441Z,926.97
2017-02-09T02:55:30.142Z,927.03
2017-02-09T02:55:50.519Z,926.96
2017-02-09T02:56:09.597Z,926.94
2017-02-09T02:56:30.016Z,926.99
2017-02-09T02:56:50.431Z,927.03
2017-02-09T02:57:10.163Z,927.06
2017-02-09T02:57:30.539Z,927.06
2017-02-09T02:57:50.925Z,927.02
2017-02-09T02:58:11.332Z,927.06
2017-02-09T02:58:31.731Z,927.08
2017-02-09T02:58:52.144Z,927.1
2017-02-09T02:59:12.596Z,927.05
2017-02-09T02:59:32.996Z,927.05
2017-02-09T02:59:53.387Z,927.07
2017-02-09T03:00:13.971Z,927.07
2017-02-09T03:00:35.194Z,927.02
2017-02-09T03:00:55.607Z,927.06
2017-02-09T03:01:16.045Z,927.07
2017-02-09T03:01:36.451Z,927.03
2017-02-09T03:01:56.866Z,927.06
2017-02-09T03:02:16.649Z,927.07
2017-02-09T03:02:37.045Z,927.05
2017-02-09T03:02:57.415Z,927.02
2017-02-09T03:03:17.851Z,927.04
2017-02-09T03:03:38.231Z,927.03
2017-02-09T03:03:58.610Z,926.98
2017-02-09T03:04:19.015Z,927.02
2017-02-09T03:04:39.420Z,927.04
2017-02-09T03:04:59.181Z,927
2017-02-09T03:05:19.771Z,926.98
2017-02-09T03:05:40.148Z,927.02
2017-02-09T03:06:00.530Z,927.07
2017-02-09T03:06:20.306Z,927.09
2017-02-09T03:06:40.719Z,927.02
2017-02-09T03:07:01.070Z,927.03
2017-02-09T03:07:20.864Z,927.04
2017-02-09T03:07:41.300Z,927.04
2017-02-09T03:08:01.703Z,927.05
2017-02-09T03:08:22.084Z,927.08
2017-02-09T03:08:42.490Z,927.07
2017-02-09T03:09:02.886Z,927.09
2017-02-09T03:09:23.247Z,927.09
2017-02-09T03:09:43.700Z,927.1
2017-02-09T03:10:04.084Z,927.09
2017-02-09T03:10:24.597Z,927.11
2017-02-09T03:10:45.008Z,927.11
2017-02-09T03:11:05.379Z,927.12
2017-02-09T03:11:25.779Z,927.13
2017-02-09T03:11:46.169Z,927.12
2017-02-09T03:12:06.564Z,927.13
2017-02-09T03:12:26.988Z,927.18
2017-02-09T03:12:47.395Z,927.16
2017-02-09T03:13:07.835Z,927.13
2017-02-09T03:13:28.211Z,927.13
2017-02-09T03:13:48.584Z,927.11
2017-02-09T03:14:09.022Z,927.12
2017-02-09T03:14:29.424Z,927.13
2017-02-09T03:14:49.869Z,927.09
2017-02-09T03:15:10.296Z,927.07
2017-02-09T03:15:30.697Z,927.11
2017-02-09T03:15:51.093Z,927.08
2017-02-09T03:16:11.516Z,927.07
2017-02-09T03:16:31.895Z,927.04
2017-02-09T03:16:52.298Z,927.02
2017-02-09T03:17:12.742Z,926.98
2017-02-09T03:17:33.141Z,927.01
2017-02-09T03:17:53.505Z,927
2017-02-09T03:18:13.917Z,927.01
2017-02-09T03:18:34.346Z,926.98
2017-02-09T03:18:54.731Z,926.98
2017-02-09T03:19:15.112Z,926.9
2017-02-09T03:19:35.455Z,926.93
2017-02-09T03:19:55.863Z,926.91
2017-02-09T03:20:16.455Z,926.91
2017-02-09T03:20:37.160Z,926.89
2017-02-09T03:20:57.578Z,926.87
2017-02-09T03:21:18.012Z,926.92
2017-02-09T03:21:38.396Z,926.92
2017-02-09T03:21:58.785Z,926.9
2017-02-09T03:22:19.177Z,926.87
2017-02-09T03:22:39.545Z,926.91
2017-02-09T03:22:59.912Z,926.86
2017-02-09T03:23:20.265Z,926.89
2017-02-09T03:23:40.667Z,926.88
2017-02-09T03:24:01.081Z,926.86
2017-02-09T03:24:21.501Z,926.88
2017-02-09T03:24:41.913Z,926.89
2017-02-09T03:25:02.300Z,926.92
2017-02-09T03:25:22.701Z,926.91
2017-02-09T03:25:43.086Z,926.91
2017-02-09T03:26:02.863Z,926.88
2017-02-09T03:26:23.239Z,926.91
2017-02-09T03:26:43.623Z,926.91
2017-02-09T03:27:04.022Z,926.91
2017-02-09T03:27:24.438Z,926.95
2017-02-09T03:27:44.225Z,926.92
2017-02-09T03:28:04.651Z,926.95
2017-02-09T03:28:25.049Z,926.93
2017-02-09T03:28:45.419Z,926.92
2017-02-09T03:29:05.821Z,926.98
2017-02-09T03:29:26.217Z,926.96
2017-02-09T03:29:46.637Z,926.92
2017-02-09T03:30:06.978Z,926.96
2017-02-09T03:30:27.401Z,926.93
2017-02-09T03:30:47.800Z,926.91
2017-02-09T03:31:08.151Z,926.94
2017-02-09T03:31:28.558Z,926.97
2017-02-09T03:31:48.942Z,926.91
2017-02-09T03:32:09.343Z,926.91
2017-02-09T03:32:29.787Z,926.9
2017-02-09T03:32:50.218Z,926.9
2017-02-09T03:33:10.624Z,926.89
2017-02-09T03:33:31.015Z,926.89
2017-02-09T03:33:51.407Z,926.85
2017-02-09T03:34:11.812Z,926.83
2017-02-09T03:34:32.208Z,926.82
2017-02-09T03:34:52.626Z,926.82
2017-02-09T03:35:13.018Z,926.82
2017-02-09T03:35:33.402Z,926.81
2017-02-09T03:35:53.791Z,926.77
2017-02-09T03:36:14.190Z,926.72
2017-02-09T03:36:33.920Z,926.74
2017-02-09T03:36:54.305Z,926.76
2017-02-09T03:37:14.725Z,926.72
2017-02-09T03:37:34.452Z,926.67
2017-02-09T03:37:54.883Z,926.68
2017-02-09T03:38:14.606Z,926.63
2017-02-09T03:38:34.362Z,926.66
2017-02-09T03:38:54.721Z,926.65
2017-02-09T03:39:14.496Z,926.61
2017-02-09T03:39:34.917Z,926.65
2017-02-09T03:39:55.341Z,926.65
2017-02-09T03:40:15.758Z,926.65
2017-02-09T03:40:36.272Z,926.64
2017-02-09T03:40:56.704Z,926.65
2017-02-09T03:41:17.118Z,926.63
2017-02-09T03:41:37.517Z,926.62
2017-02-09T03:41:57.924Z,926.62
2017-02-09T03:42:18.345Z,926.64
2017-02-09T03:42:38.735Z,926.63
2017-02-09T03:42:59.128Z,926.61
2017-02-09T03:43:19.511Z,926.59
2017-02-09T03:43:39.279Z,926.62
2017-02-09T03:43:59.664Z,926.58
2017-02-09T03:44:20.098Z,926.62
2017-02-09T03:44:40.518Z,926.61
2017-02-09T03:45:00.919Z,926.67
2017-02-09T03:45:20.723Z,926.64
2017-02-09T03:45:41.115Z,926.62
2017-02-09T03:46:01.476Z,926.62
2017-02-09T03:46:21.224Z,926.65
2017-02-09T03:46:41.632Z,926.59
2017-02-09T03:47:02.038Z,926.66
2017-02-09T03:47:22.408Z,926.65
2017-02-09T03:47:42.782Z,926.67
2017-02-09T03:48:03.197Z,926.65
2017-02-09T03:48:23.614Z,926.64
2017-02-09T03:48:43.994Z,926.67
2017-02-09T03:49:04.428Z,926.69
2017-02-09T03:49:24.835Z,926.7
2017-02-09T03:49:45.281Z,926.73
2017-02-09T03:50:05.684Z,926.72
2017-02-09T03:50:26.263Z,926.71
2017-02-09T03:50:47.303Z,926.72
2017-02-09T03:51:07.924Z,926.7
2017-02-09T03:51:28.335Z,926.67
2017-02-09T03:51:48.765Z,926.67
2017-02-09T03:52:09.163Z,926.67
2017-02-09T03:52:29.553Z,926.68
2017-02-09T03:52:49.309Z,926.7
2017-02-09T03:53:09.702Z,926.63
2017-02-09T03:53:30.089Z,926.67
2017-02-09T03:53:50.478Z,926.66
2017-02-09T03:54:10.884Z,926.62
2017-02-09T03:54:31.270Z,926.64
2017-02-09T03:54:51.648Z,926.64
2017-02-09T03:55:12.062Z,926.65
2017-02-09T03:55:32.463Z,926.63
2017-02-09T03:55:52.799Z,926.57
2017-02-09T03:56:13.196Z,926.6
2017-02-09T03:56:33.631Z,926.62
2017-02-09T03:56:54.013Z,926.64
2017-02-09T03:57:14.403Z,926.63
2017-02-09T03:57:34.830Z,926.58
2017-02-09T03:57:55.227Z,926.59
2017-02-09T03:58:15.630Z,926.58
2017-02-09T03:58:35.989Z,926.58
2017-02-09T03:58:56.403Z,926.56
2017-02-09T03:59:16.832Z,926.58
2017-02-09T03:59:37.252Z,926.57
2017-02-09T03:59:57.630Z,926.54
2017-02-09T04:00:17.364Z,926.55
2017-02-09T04:00:37.748Z,926.53
2017-02-09T04:00:58.126Z,926.51
2017-02-09T04:01:17.850Z,926.47
2017-02-09T04:01:38.232Z,926.51
2017-02-09T04:01:57.935Z,926.48
2017-02-09T04:02:17.863Z,926.51
2017-02-09T04:02:38.242Z,926.49
2017-02-09T04:02:58.654Z,926.48
2017-02-09T04:03:18.410Z,926.45
2017-02-09T04:03:38.791Z,926.49
2017-02-09T04:03:59.248Z,926.45
2017-02-09T04:04:19.636Z,926.46
2017-02-09T04:04:40.053Z,926.46
2017-02-09T04:05:00.468Z,926.43
2017-02-09T04:05:20.878Z,926.47
2017-02-09T04:05:41.282Z,926.43
2017-02-09T04:06:01.691Z,926.43
2017-02-09T04:06:21.429Z,926.46
2017-02-09T04:06:41.182Z,926.42
2017-02-09T04:07:01.601Z,926.45
2017-02-09T04:07:21.999Z,926.45
2017-02-09T04:07:42.382Z,926.45
2017-02-09T04:08:02.779Z,926.46
2017-02-09T04:08:23.235Z,926.46
2017-02-09T04:08:43.603Z,926.44
2017-02-09T04:09:04.014Z,926.47
2017-02-09T04:09:24.400Z,926.41
2017-02-09T04:09:44.796Z,926.44
2017-02-09T04:10:05.203Z,926.41
2017-02-09T04:10:25.916Z,926.4
2017-02-09T04:10:46.320Z,926.38
2017-02-09T04:11:06.734Z,926.42
2017-02-09T04:11:27.145Z,926.46
2017-02-09T04:11:47.504Z,926.42
2017-02-09T04:12:07.870Z,926.46
2017-02-09T04:12:28.289Z,926.45